Terminal Aerodrome Forecast
Issued by NWS Birmingham, AL

Home | Current Version | Previous Version | Text Only | Print | Product List | Glossary On
Versions: 1 2 3 4 5 6 7 8 9 10 11 12 13 14 15
000
FTUS44 KBMX 141100
TAFBHM
TAF
KBHM 141134Z 1412/1512 21007KT P6SM SCT110
      TEMPO 1412/1413 5SM BR
     FM141700 24009KT P6SM SCT050
     FM150200 22010KT P6SM VCTS BKN050CB
      TEMPO 1504/1507 3SM TSRA BR BKN050CB=

USA.gov is the U.S. government's official web portal to all federal, state and local government web resources and services.